createdAt,value
2018-06-03T13:51:42.370Z,28.65
2018-06-03T13:54:11.847Z,28.76
2018-06-03T13:56:41.226Z,29.02
2018-06-03T13:59:10.580Z,27.86
2018-06-03T14:01:39.986Z,27.87
2018-06-03T14:04:09.372Z,27.62
2018-06-03T14:06:39.037Z,26.55
2018-06-03T14:09:08.482Z,27.46
2018-06-03T14:11:38.074Z,26.69
2018-06-03T14:14:07.432Z,27.60
2018-06-03T14:16:36.843Z,27.52
2018-06-03T14:19:06.373Z,26.74
2018-06-03T14:21:35.895Z,27.24
2018-06-03T14:24:05.271Z,26.13
2018-06-03T14:26:34.711Z,26.54
2018-06-03T14:29:04.161Z,26.74
2018-06-03T14:31:33.671Z,27.60
2018-06-03T14:34:03.188Z,27.50
2018-06-03T14:36:32.591Z,27.66
2018-06-03T14:39:02.146Z,28.21
2018-06-03T14:41:31.585Z,27.74
2018-06-03T14:44:01.284Z,27.85
2018-06-03T14:46:30.743Z,27.48
2018-06-03T14:49:00.480Z,27.93
2018-06-03T14:51:30.081Z,28.02
2018-06-03T14:53:59.546Z,28.43
2018-06-03T14:56:28.962Z,27.83
2018-06-03T14:58:58.264Z,27.88
2018-06-03T15:01:27.680Z,26.79
2018-06-03T15:03:59.281Z,27.53
2018-06-03T15:06:28.763Z,28.33
2018-06-03T15:08:58.317Z,27.71
2018-06-03T15:11:27.756Z,27.71
2018-06-03T15:13:57.170Z,27.11
2018-06-03T15:16:26.617Z,27.51
2018-06-03T15:18:56.028Z,26.73
2018-06-03T15:21:25.627Z,26.92
2018-06-03T15:23:55.326Z,26.72
2018-06-03T15:26:27.590Z,27.11
2018-06-03T15:28:57.027Z,27.14
2018-06-03T15:31:26.672Z,26.88
2018-06-03T15:33:56.190Z,27.63
2018-06-03T15:36:25.623Z,27.01
2018-06-03T15:38:55.139Z,26.95
2018-06-03T15:41:24.540Z,26.75
2018-06-03T15:43:54.182Z,26.71
2018-06-03T15:46:23.611Z,26.48
2018-06-03T15:48:53.021Z,27.14
2018-06-03T15:51:22.423Z,27.24
2018-06-03T15:53:51.886Z,27.37
2018-06-03T15:56:21.252Z,26.65
2018-06-03T15:58:50.946Z,26.36
2018-06-03T16:01:20.368Z,27.12
2018-06-03T16:03:49.750Z,26.65
2018-06-03T16:06:19.218Z,26.84
2018-06-03T16:08:48.836Z,26.71
2018-06-03T16:11:18.239Z,27.61
2018-06-03T16:13:47.760Z,27.41
2018-06-03T16:16:17.239Z,27.46
2018-06-03T16:18:46.838Z,27.28
2018-06-03T16:21:16.280Z,28.07
2018-06-03T16:23:45.768Z,26.82
2018-06-03T16:26:15.249Z,27.00
2018-06-03T16:28:44.794Z,26.88
2018-06-03T16:31:14.308Z,26.73
2018-06-03T16:33:43.805Z,27.14
2018-06-03T16:36:13.363Z,26.86
2018-06-03T16:38:42.960Z,27.14
2018-06-03T16:41:12.291Z,27.98
2018-06-03T16:43:41.663Z,27.51
2018-06-03T16:46:11.052Z,27.40
2018-06-03T16:48:40.565Z,26.89
2018-06-03T16:51:09.878Z,26.04
2018-06-03T16:53:39.212Z,25.96
2018-06-03T16:56:08.657Z,25.43
2018-06-03T16:58:38.074Z,25.94
2018-06-03T17:01:07.555Z,26.05
2018-06-03T17:03:37.088Z,25.93
2018-06-03T17:06:06.553Z,26.06
2018-06-03T17:08:35.967Z,25.26
2018-06-03T17:11:05.641Z,25.78
2018-06-03T17:13:35.141Z,25.44
2018-06-03T17:16:04.550Z,25.67
2018-06-03T17:18:33.965Z,25.50
2018-06-03T17:21:03.572Z,25.79
2018-06-03T17:23:33.224Z,25.41
2018-06-03T17:26:02.853Z,25.01
2018-06-03T17:28:32.345Z,25.86
2018-06-03T17:31:01.886Z,25.76
2018-06-03T17:33:31.428Z,25.52
2018-06-03T17:36:00.877Z,25.52
2018-06-03T17:38:30.382Z,25.57
2018-06-03T17:40:59.911Z,25.63
2018-06-03T17:43:29.275Z,25.53
2018-06-03T17:45:59.508Z,26.54
2018-06-03T17:48:28.970Z,26.24
2018-06-03T17:50:58.284Z,26.08
2018-06-03T17:53:27.733Z,26.33
2018-06-03T17:55:57.186Z,26.37
2018-06-03T17:58:26.743Z,26.16
2018-06-03T18:00:56.297Z,26.51
2018-06-03T18:03:25.809Z,26.62
2018-06-03T18:05:55.273Z,26.71
2018-06-03T18:08:24.797Z,26.47
2018-06-03T18:10:54.362Z,26.39
2018-06-03T18:13:24.144Z,25.67
2018-06-03T18:15:53.538Z,25.89
2018-06-03T18:18:23.001Z,26.16
2018-06-03T18:20:52.602Z,26.22
2018-06-03T18:23:21.962Z,26.20
2018-06-03T18:25:51.659Z,25.91
2018-06-03T18:28:21.114Z,25.90
2018-06-03T18:30:50.630Z,25.97
2018-06-03T18:33:20.149Z,25.86
2018-06-03T18:35:49.779Z,25.74
2018-06-03T18:38:19.289Z,25.88
2018-06-03T18:40:48.668Z,25.74
2018-06-03T18:43:21.100Z,25.59
2018-06-03T18:45:50.593Z,25.32
2018-06-03T18:48:20.130Z,25.45
2018-06-03T18:50:52.597Z,25.34
2018-06-03T18:53:22.081Z,25.19
2018-06-03T18:55:51.507Z,25.51
2018-06-03T18:58:20.970Z,25.44
2018-06-03T19:00:50.335Z,25.18
2018-06-03T19:03:19.876Z,24.87
2018-06-03T19:05:49.330Z,24.62
2018-06-03T19:08:18.766Z,24.67
2018-06-03T19:10:48.372Z,24.62
2018-06-03T19:13:17.767Z,24.45
2018-06-03T19:15:47.251Z,23.80
2018-06-03T19:18:16.879Z,23.87
2018-06-03T19:20:46.349Z,24.02
2018-06-03T19:23:15.791Z,23.64
2018-06-03T19:25:45.357Z,23.60
2018-06-03T19:28:14.851Z,23.60
2018-06-03T19:30:44.528Z,23.34
2018-06-03T19:33:14.116Z,23.26
2018-06-03T19:35:43.682Z,23.28
2018-06-03T19:38:13.169Z,23.10
2018-06-03T19:40:42.552Z,23.01
2018-06-03T19:43:12.149Z,22.93
2018-06-03T19:45:41.716Z,22.80
2018-06-03T19:48:11.292Z,22.46
2018-06-03T19:50:40.737Z,22.23
2018-06-03T19:53:10.325Z,22.03
2018-06-03T19:55:39.696Z,22.21
2018-06-03T19:58:09.167Z,22.26
2018-06-03T20:00:38.686Z,22.31
2018-06-03T20:03:08.223Z,22.37
2018-06-03T20:05:37.662Z,22.20
2018-06-03T20:08:06.977Z,22.01
2018-06-03T20:10:36.401Z,21.95
2018-06-03T20:13:05.825Z,22.00
2018-06-03T20:15:36.537Z,21.99
2018-06-03T20:18:06.103Z,22.18
2018-06-03T20:20:35.429Z,21.90
2018-06-03T20:23:04.880Z,22.02
2018-06-03T20:25:34.269Z,21.72
2018-06-03T20:28:04.612Z,21.33
2018-06-03T20:30:37.646Z,21.37
2018-06-03T20:33:07.409Z,21.64
2018-06-03T20:35:36.977Z,21.53
2018-06-03T20:38:06.588Z,21.61
2018-06-03T20:40:36.066Z,21.46
2018-06-03T20:43:05.541Z,21.05
2018-06-03T20:45:34.888Z,21.32
2018-06-03T20:48:05.497Z,21.06
2018-06-03T20:50:35.166Z,21.23
2018-06-03T20:53:04.672Z,21.35
2018-06-03T20:55:34.132Z,20.96
2018-06-03T20:58:03.713Z,21.34
2018-06-03T21:00:33.313Z,21.18
2018-06-03T21:03:02.891Z,21.46
2018-06-03T21:05:32.465Z,21.20
2018-06-03T21:08:01.993Z,21.22
2018-06-03T21:10:31.429Z,21.13
2018-06-03T21:13:00.894Z,20.95
2018-06-03T21:15:30.353Z,21.05
2018-06-03T21:17:59.867Z,20.68
2018-06-03T21:20:29.433Z,20.49
2018-06-03T21:22:58.810Z,20.80
2018-06-03T21:25:28.293Z,20.83
2018-06-03T21:27:57.749Z,20.90
2018-06-03T21:30:29.557Z,20.97
2018-06-03T21:32:58.954Z,20.56
2018-06-03T21:35:28.444Z,20.73
2018-06-03T21:37:58.292Z,20.59
2018-06-03T21:40:27.739Z,20.62
2018-06-03T21:42:57.431Z,20.30
2018-06-03T21:45:27.002Z,20.24
2018-06-03T21:47:56.461Z,20.32
2018-06-03T21:50:26.219Z,20.63
2018-06-03T21:52:56.988Z,20.62
2018-06-03T21:55:28.780Z,20.40
2018-06-03T21:57:58.319Z,20.30
2018-06-03T22:00:27.855Z,20.34
2018-06-03T22:02:58.279Z,20.62
2018-06-03T22:05:29.886Z,20.44
2018-06-03T22:07:59.383Z,20.61
2018-06-03T22:10:28.785Z,20.36
2018-06-03T22:12:58.344Z,20.24
2018-06-03T22:15:27.797Z,20.14
2018-06-03T22:17:57.345Z,19.80
2018-06-03T22:20:26.805Z,19.56
2018-06-03T22:22:56.295Z,19.77
2018-06-03T22:25:25.824Z,20.06
2018-06-03T22:27:55.274Z,19.90
2018-06-03T22:30:24.682Z,20.19
2018-06-03T22:32:54.166Z,19.57
2018-06-03T22:35:23.586Z,19.89
2018-06-03T22:37:52.939Z,19.70
2018-06-03T22:40:22.274Z,19.90
2018-06-03T22:42:51.609Z,20.02
2018-06-03T22:45:20.985Z,19.67
2018-06-03T22:47:50.351Z,19.75
2018-06-03T22:50:19.657Z,19.81
2018-06-03T22:52:49.027Z,19.93
2018-06-03T22:55:18.365Z,19.53
2018-06-03T22:57:53.910Z,20.14
2018-06-03T23:00:31.764Z,19.87
2018-06-03T23:03:06.450Z,19.82
2018-06-03T23:05:36.224Z,19.30
2018-06-03T23:08:05.560Z,19.40
2018-06-03T23:10:35.006Z,19.68
2018-06-03T23:13:04.567Z,19.69
2018-06-03T23:15:33.919Z,19.21
2018-06-03T23:18:03.281Z,18.96
2018-06-03T23:20:32.706Z,19.45
2018-06-03T23:23:02.174Z,19.52
2018-06-03T23:25:31.507Z,19.41
2018-06-03T23:28:00.845Z,19.15
2018-06-03T23:30:30.270Z,19.02
2018-06-03T23:32:59.663Z,19.36
2018-06-03T23:35:29.105Z,19.41
2018-06-03T23:37:58.622Z,19.06
2018-06-03T23:40:28.062Z,18.98
2018-06-03T23:42:57.556Z,18.95
2018-06-03T23:45:27.044Z,19.40
2018-06-03T23:47:56.453Z,19.32
2018-06-03T23:50:25.826Z,19.22
2018-06-03T23:52:55.343Z,18.94
2018-06-03T23:55:24.790Z,18.83
2018-06-03T23:57:54.164Z,19.08
